Caraibes II F/v — FJXR — position and weather

sailwx.info

Track history (hours):
 
Tides and Currents Weather Stations Pressure Air Temp Water Temp Dewpoint Dewpoint Depression Visibility Wind Speed Wind Dir Waves Ship Positions

Caraibes II F/v

Last reported at 2018-Feb-25 09:43 UTC. Time now 2018-Feb-25 14:13 UTC.
Position N 47°50' W 004°10'.

Length 15 m.

Type: Fishing. MMSI: 228087900.

Date/timePositionNaut miles runAvg speedWind from/ knotsBaromVisibWave heightAir tempDewpointWater temp
2018-Feb-25 09:43N 47°50' W 004°10'0 0.0
2018-Feb-25 01:43N 47°50' W 004°10'0 0.0
2018-Feb-24 21:43N 47°50' W 004°10'0 0.0
2018-Feb-24 20:43N 47°50' W 004°10'0 0.0
2018-Feb-24 10:43N 47°50' W 004°10'0 0.0
2018-Feb-24 08:43N 47°50' W 004°10'0 0.0
2018-Feb-24 07:43N 47°50' W 004°10'0 0.0
2018-Feb-24 06:43N 47°50' W 004°10'0 0.0
2018-Feb-23 19:54N 47°50' W 004°10'3 7.2
2018-Feb-23 19:30N 47°48' W 004°09'6 8.5
2018-Feb-23 18:48N 47°44' W 004°15'3 8.3
2018-Feb-23 18:28N 47°42' W 004°18'5 7.9
2018-Feb-23 17:46N 47°38' W 004°24'3 0.1
2018-Feb-21 19:02N 47°41' W 004°24'2 8.3
2018-Feb-21 18:49N 47°42' W 004°22'3 8.3
2018-Feb-21 18:30N 47°43' W 004°19'4 7.4
2018-Feb-21 18:00N 47°47' W 004°18'0 0.1
2018-Feb-21 14:33N 47°47' W 004°18'1 8.4
2018-Feb-21 14:29N 47°47' W 004°18'3 7.3
2018-Feb-21 14:01N 47°44' W 004°21'3 5.1
2018-Feb-21 13:31N 47°42' W 004°22'  
2018-Feb-19 06:15N 47°38' W 004°21'2 8.6
2018-Feb-19 06:00N 47°39' W 004°19'11 8.4
2018-Feb-19 04:45N 47°47' W 004°09'2 8.4
2018-Feb-19 04:29N 47°50' W 004°09'1 0.1
2018-Feb-18 08:16N 47°50' W 004°10'0 0.9
2018-Feb-18 07:51N 47°50' W 004°10'3 6.1
2018-Feb-18 07:25N 47°48' W 004°09'6 8.5
2018-Feb-18 06:40N 47°42' W 004°14'2 8.7
2018-Feb-18 06:28N 47°41' W 004°16'4 8.6
2018-Feb-18 06:00N 47°38' W 004°20'39 1.4
2018-Feb-17 01:33N 47°25' W 005°14'0 3.9
2018-Feb-17 01:30N 47°25' W 005°14'  
Track history (hours):
 
Tides and Currents Weather Stations Pressure Air Temp Water Temp Dewpoint Dewpoint Depression Visibility Wind Speed Wind Dir Waves Ship Positions

Caraibes II F/v

Last reported at 2018-Feb-25 09:43 UTC. Time now 2018-Feb-25 14:13 UTC.
Position N 47°50' W 004°10'.

Length 15 m.

Type: Fishing. MMSI: 228087900.

Date/timePositionNaut miles runAvg speedWind from/ knotsBaromVisibWave heightAir tempDewpointWater temp
2018-Feb-25 09:43N 47°50' W 004°10'0 0.0
2018-Feb-25 01:43N 47°50' W 004°10'0 0.0
2018-Feb-24 21:43N 47°50' W 004°10'0 0.0
2018-Feb-24 20:43N 47°50' W 004°10'0 0.0
2018-Feb-24 10:43N 47°50' W 004°10'0 0.0
2018-Feb-24 08:43N 47°50' W 004°10'0 0.0
2018-Feb-24 07:43N 47°50' W 004°10'0 0.0
2018-Feb-24 06:43N 47°50' W 004°10'0 0.0
2018-Feb-23 19:54N 47°50' W 004°10'3 7.2
2018-Feb-23 19:30N 47°48' W 004°09'6 8.5
2018-Feb-23 18:48N 47°44' W 004°15'3 8.3
2018-Feb-23 18:28N 47°42' W 004°18'5 7.9
2018-Feb-23 17:46N 47°38' W 004°24'3 0.1
2018-Feb-21 19:02N 47°41' W 004°24'2 8.3
2018-Feb-21 18:49N 47°42' W 004°22'3 8.3
2018-Feb-21 18:30N 47°43' W 004°19'4 7.4
2018-Feb-21 18:00N 47°47' W 004°18'0 0.1
2018-Feb-21 14:33N 47°47' W 004°18'1 8.4
2018-Feb-21 14:29N 47°47' W 004°18'3 7.3
2018-Feb-21 14:01N 47°44' W 004°21'3 5.1
2018-Feb-21 13:31N 47°42' W 004°22'  
2018-Feb-19 06:15N 47°38' W 004°21'2 8.6
2018-Feb-19 06:00N 47°39' W 004°19'11 8.4
2018-Feb-19 04:45N 47°47' W 004°09'2 8.4
2018-Feb-19 04:29N 47°50' W 004°09'1 0.1
2018-Feb-18 08:16N 47°50' W 004°10'0 0.9
2018-Feb-18 07:51N 47°50' W 004°10'3 6.1
2018-Feb-18 07:25N 47°48' W 004°09'6 8.5
2018-Feb-18 06:40N 47°42' W 004°14'2 8.7
2018-Feb-18 06:28N 47°41' W 004°16'4 8.6
2018-Feb-18 06:00N 47°38' W 004°20'39 1.4
2018-Feb-17 01:33N 47°25' W 005°14'0 3.9
2018-Feb-17 01:30N 47°25' W 005°14'  

Dump ship's entire track history